Time;durP1;ratioP1;P1;durP2;ratioP2;P2;SDS_P1;SDS_P2;PMS_P1;PMS_P2;Temp;Humidity;BMP_temperature;BMP_pressure;BME280_temperature;BME280_humidity;BME280_pressure;Samples;Min_cycle;Max_cycle;Signal;HPM_P1;HPM_P2
2023/08/18 00:00:00;;;;;;;2.77;1.90;;;16.50;87.50;;;;;;5028803;28;20047;-65
2023/08/18 00:02:26;;;;;;;2.90;1.73;;;16.50;87.60;;;;;;5025178;28;20357;-65
2023/08/18 00:04:52;;;;;;;4.87;2.30;;;16.50;87.50;;;;;;5006141;28;20299;-65
2023/08/18 00:07:18;;;;;;;3.57;1.80;;;16.40;87.50;;;;;;5004811;28;20304;-65
2023/08/18 00:09:43;;;;;;;4.13;1.90;;;16.40;87.40;;;;;;5026624;28;20090;-65
2023/08/18 00:12:10;;;;;;;2.47;1.90;;;16.40;87.40;;;;;;5025507;28;20060;-65
2023/08/18 00:14:35;;;;;;;2.43;1.93;;;16.40;87.30;;;;;;5003523;28;20040;-65
2023/08/18 00:17:01;;;;;;;3.50;2.17;;;16.30;87.20;;;;;;5018839;28;20295;-65
2023/08/18 00:19:27;;;;;;;2.20;1.63;;;16.30;87.30;;;;;;5028319;28;20072;-65
2023/08/18 00:21:52;;;;;;;3.17;1.90;;;16.30;87.30;;;;;;5024308;28;20418;-65
2023/08/18 00:24:18;;;;;;;1.90;1.70;;;16.20;87.30;;;;;;5021610;28;20052;-65
2023/08/18 00:26:45;;;;;;;2.00;1.40;;;16.20;87.40;;;;;;5022661;28;20508;-65
2023/08/18 00:29:11;;;;;;;3.53;2.00;;;16.20;87.40;;;;;;5022267;28;20117;-65
2023/08/18 00:31:37;;;;;;;3.97;2.00;;;16.20;87.50;;;;;;5032316;28;20298;-65
2023/08/18 00:34:03;;;;;;;2.77;1.67;;;16.20;87.70;;;;;;5030262;28;20284;-65
2023/08/18 00:36:30;;;;;;;2.93;1.90;;;16.10;87.80;;;;;;5031549;28;20033;-65
2023/08/18 00:38:56;;;;;;;3.07;1.77;;;16.10;88.00;;;;;;5041460;28;20298;-65
2023/08/18 00:41:22;;;;;;;3.30;1.97;;;16.10;87.90;;;;;;5026007;28;20354;-65
2023/08/18 00:43:48;;;;;;;4.17;2.20;;;16.10;87.80;;;;;;5030642;28;20279;-65
2023/08/18 00:46:14;;;;;;;3.93;2.03;;;16.10;87.80;;;;;;5027429;28;20048;-66
2023/08/18 00:48:42;;;;;;;2.83;2.00;;;16.10;87.70;;;;;;5032102;28;20040;-65
2023/08/18 00:51:09;;;;;;;2.97;2.07;;;16.10;87.70;;;;;;5027005;28;20280;-65
2023/08/18 00:53:36;;;;;;;4.10;2.17;;;16.10;87.60;;;;;;5029561;28;20291;-65
2023/08/18 00:56:02;;;;;;;5.07;2.10;;;16.10;87.80;;;;;;5015695;28;20280;-65
2023/08/18 00:58:29;;;;;;;3.63;2.00;;;16.10;87.90;;;;;;5030121;28;20366;-65
2023/08/18 01:00:55;;;;;;;3.23;2.07;;;16.10;87.90;;;;;;5030488;28;20319;-65
2023/08/18 01:03:21;;;;;;;2.93;1.73;;;16.10;87.80;;;;;;5029662;28;20296;-65
2023/08/18 01:05:47;;;;;;;3.37;1.40;;;16.10;87.80;;;;;;5032117;28;20335;-65
2023/08/18 01:08:13;;;;;;;3.77;1.73;;;16.10;87.80;;;;;;5008878;28;20068;-65
2023/08/18 01:11:12;;;;;;;3.63;1.80;;;16.10;87.90;;;;;;5029619;28;20037;-65
2023/08/18 01:14:11;;;;;;;5.67;1.70;;;16.10;87.70;;;;;;5031628;28;20041;-65
2023/08/18 01:16:39;;;;;;;2.70;1.73;;;16.10;87.70;;;;;;5024698;28;20283;-65
2023/08/18 01:19:12;;;;;;;2.87;1.70;;;16.10;87.80;;;;;;5030414;28;20779;-65
2023/08/18 01:21:41;;;;;;;2.47;1.50;;;16.10;87.90;;;;;;5028265;28;20339;-65
2023/08/18 01:24:06;;;;;;;3.63;1.77;;;16.10;87.80;;;;;;5025126;28;20617;-65
2023/08/18 01:26:33;;;;;;;3.00;1.70;;;16.10;88.10;;;;;;5026801;28;20873;-65
2023/08/18 01:28:59;;;;;;;3.47;1.50;;;16.10;88.10;;;;;;5028689;28;20076;-65
2023/08/18 01:31:31;;;;;;;2.10;1.60;;;16.10;88.20;;;;;;5031699;28;20318;-65
2023/08/18 01:34:01;;;;;;;3.20;1.70;;;16.10;88.20;;;;;;5023786;28;20037;-65
2023/08/18 01:36:33;;;;;;;4.67;2.10;;;16.10;88.30;;;;;;5031731;28;20326;-65
2023/08/18 01:39:01;;;;;;;4.20;2.27;;;16.10;88.50;;;;;;5028481;28;20284;-65
2023/08/18 01:41:29;;;;;;;2.43;1.83;;;16.10;88.40;;;;;;5026250;28;20287;-66
2023/08/18 01:43:55;;;;;;;3.13;2.07;;;16.10;88.40;;;;;;5030835;28;20649;-65
2023/08/18 01:46:21;;;;;;;6.30;2.10;;;16.10;88.50;;;;;;5032000;28;20282;-65
2023/08/18 01:48:47;;;;;;;2.90;1.97;;;16.10;88.70;;;;;;5029153;28;20292;-65
2023/08/18 01:51:12;;;;;;;4.90;1.90;;;16.10;88.70;;;;;;5026863;28;20043;-65
2023/08/18 01:53:38;;;;;;;4.30;2.20;;;16.10;88.60;;;;;;5029878;28;20056;-65
2023/08/18 01:56:04;;;;;;;3.90;2.30;;;16.10;88.80;;;;;;5014013;28;20508;-65
2023/08/18 01:58:30;;;;;;;3.37;2.20;;;16.10;88.80;;;;;;5030106;28;20052;-65
2023/08/18 02:00:56;;;;;;;3.70;2.30;;;16.10;88.90;;;;;;5027541;28;20060;-65
2023/08/18 02:03:26;;;;;;;3.90;2.23;;;16.10;89.00;;;;;;5025934;28;20064;-65
2023/08/18 02:05:52;;;;;;;3.10;1.93;;;16.10;89.10;;;;;;5027821;28;20303;-65
2023/08/18 02:08:18;;;;;;;2.70;2.00;;;16.10;89.20;;;;;;5029608;28;20315;-65
2023/08/18 02:10:44;;;;;;;4.07;1.93;;;16.10;89.10;;;;;;5022269;28;20288;-65
2023/08/18 02:13:10;;;;;;;2.77;2.30;;;16.10;89.30;;;;;;5029512;28;20290;-65
2023/08/18 02:15:35;;;;;;;4.33;2.47;;;16.10;89.40;;;;;;5029034;28;20155;-65
2023/08/18 02:18:01;;;;;;;5.17;2.40;;;16.10;89.60;;;;;;5030921;28;20041;-65
2023/08/18 02:20:27;;;;;;;4.37;2.50;;;16.10;89.70;;;;;;5023455;28;20391;-65
2023/08/18 02:22:52;;;;;;;3.47;2.77;;;16.10;89.80;;;;;;5026493;28;20940;-65
2023/08/18 02:25:18;;;;;;;5.00;3.10;;;16.10;89.60;;;;;;5030185;28;20037;-65
2023/08/18 02:27:44;;;;;;;5.23;2.97;;;16.10;89.90;;;;;;5024193;28;20516;-65
2023/08/18 02:30:10;;;;;;;4.07;3.30;;;16.10;89.80;;;;;;5029300;28;20045;-65
2023/08/18 02:32:35;;;;;;;5.57;3.50;;;16.20;90.10;;;;;;5023217;28;20048;-65
2023/08/18 02:35:01;;;;;;;3.93;3.30;;;16.20;89.80;;;;;;5030598;28;20128;-65
2023/08/18 02:37:27;;;;;;;3.27;2.70;;;16.20;89.90;;;;;;5026633;28;20036;-65
2023/08/18 02:39:53;;;;;;;4.80;3.63;;;16.10;90.00;;;;;;5028051;28;20127;-65
2023/08/18 02:42:19;;;;;;;4.83;3.70;;;16.10;90.10;;;;;;5028440;28;20048;-65
2023/08/18 02:44:46;;;;;;;5.90;3.33;;;16.10;90.10;;;;;;5030430;28;20045;-65
2023/08/18 02:47:13;;;;;;;5.40;3.40;;;16.10;90.40;;;;;;5027820;28;20299;-65
2023/08/18 02:49:39;;;;;;;5.43;2.73;;;16.10;90.40;;;;;;5012281;28;20291;-65
2023/08/18 02:52:05;;;;;;;3.87;2.70;;;16.00;90.40;;;;;;5026130;28;20651;-65
2023/08/18 02:54:30;;;;;;;4.13;2.97;;;16.00;90.30;;;;;;5026014;28;20041;-65
2023/08/18 02:56:57;;;;;;;5.47;3.13;;;16.00;90.30;;;;;;5025332;28;20381;-65
2023/08/18 02:59:23;;;;;;;3.60;2.87;;;16.00;90.60;;;;;;5028286;28;20057;-65
2023/08/18 03:01:49;;;;;;;5.77;3.40;;;16.00;90.50;;;;;;5027837;28;20304;-65
2023/08/18 03:04:15;;;;;;;4.33;2.80;;;15.90;90.80;;;;;;5029993;28;20489;-65
2023/08/18 03:06:40;;;;;;;4.00;2.60;;;15.90;90.80;;;;;;5028998;28;20057;-65
2023/08/18 03:09:07;;;;;;;3.23;2.37;;;15.90;90.80;;;;;;5005635;28;20029;-65
2023/08/18 03:11:33;;;;;;;4.47;2.90;;;15.90;90.70;;;;;;5021382;28;20117;-65
2023/08/18 03:13:59;;;;;;;3.33;2.70;;;15.90;91.00;;;;;;5021522;28;20380;-65
2023/08/18 03:16:24;;;;;;;3.53;2.50;;;15.90;91.00;;;;;;5019524;28;20562;-65
2023/08/18 03:18:50;;;;;;;5.80;2.87;;;15.90;91.00;;;;;;5031346;28;20041;-65
2023/08/18 03:21:16;;;;;;;6.00;2.80;;;15.90;90.90;;;;;;5026807;28;20144;-65
2023/08/18 03:23:41;;;;;;;4.00;2.90;;;15.90;91.00;;;;;;5024415;28;20331;-65
2023/08/18 03:26:07;;;;;;;4.50;3.10;;;15.90;91.00;;;;;;5022412;28;20052;-65
2023/08/18 03:28:35;;;;;;;3.97;2.80;;;15.90;91.20;;;;;;5031827;28;20029;-65
2023/08/18 03:31:03;;;;;;;6.00;3.30;;;15.90;91.00;;;;;;5032476;28;20048;-65
2023/08/18 03:33:30;;;;;;;3.47;3.00;;;15.90;91.00;;;;;;5013681;28;20433;-65
2023/08/18 03:35:56;;;;;;;6.33;3.20;;;15.90;91.00;;;;;;5027284;28;20292;-65
2023/08/18 03:38:22;;;;;;;4.73;3.37;;;15.90;91.00;;;;;;5019815;28;20357;-65
2023/08/18 03:40:49;;;;;;;5.27;3.40;;;15.90;91.20;;;;;;5016356;28;20855;-65
2023/08/18 03:43:15;;;;;;;6.13;3.40;;;15.90;91.20;;;;;;5022306;28;20302;-65
2023/08/18 03:45:41;;;;;;;6.00;3.30;;;15.90;91.10;;;;;;5029516;28;20283;-65
2023/08/18 03:48:07;;;;;;;5.20;3.47;;;16.00;91.30;;;;;;5028340;28;20291;-65
2023/08/18 03:50:32;;;;;;;4.53;2.93;;;16.00;91.20;;;;;;5028357;28;20040;-65
2023/08/18 03:52:58;;;;;;;6.17;3.47;;;16.00;91.10;;;;;;5029903;28;20336;-65
2023/08/18 03:55:24;;;;;;;8.63;4.10;;;16.00;91.20;;;;;;5015229;28;20485;-65
2023/08/18 03:57:49;;;;;;;5.57;3.50;;;16.00;91.20;;;;;;5020365;28;20041;-65
2023/08/18 04:00:17;;;;;;;5.47;3.50;;;16.00;91.40;;;;;;5027095;28;20459;-65
2023/08/18 04:02:43;;;;;;;6.00;3.83;;;16.00;91.50;;;;;;5027112;28;20041;-65
2023/08/18 04:05:09;;;;;;;5.43;4.07;;;16.00;91.30;;;;;;5028114;28;20625;-65
2023/08/18 04:07:35;;;;;;;7.03;4.20;;;16.00;91.30;;;;;;5030309;28;20857;-65
2023/08/18 04:10:01;;;;;;;6.23;3.77;;;16.00;91.50;;;;;;5039619;28;20037;-65
2023/08/18 04:12:27;;;;;;;5.53;3.97;;;16.00;91.40;;;;;;5032664;28;20044;-65
2023/08/18 04:14:53;;;;;;;6.27;3.87;;;16.00;91.40;;;;;;5031150;28;20049;-65
2023/08/18 04:17:18;;;;;;;8.77;3.90;;;16.00;91.40;;;;;;5030931;28;20302;-65
2023/08/18 04:19:44;;;;;;;5.27;4.00;;;16.10;91.40;;;;;;5026276;28;20500;-65
2023/08/18 04:22:10;;;;;;;7.17;4.03;;;16.10;91.30;;;;;;5032314;28;20132;-65
2023/08/18 04:24:35;;;;;;;6.37;4.20;;;16.00;91.30;;;;;;5033348;28;20060;-65
2023/08/18 04:27:01;;;;;;;7.23;4.07;;;16.10;91.40;;;;;;5032175;28;20037;-65
2023/08/18 04:29:27;;;;;;;4.83;3.40;;;16.10;91.50;;;;;;5030646;28;20075;-65
2023/08/18 04:31:53;;;;;;;6.03;3.60;;;16.10;91.60;;;;;;5032398;28;20060;-65
2023/08/18 04:34:19;;;;;;;8.23;5.37;;;16.10;91.50;;;;;;5031765;28;20296;-65
2023/08/18 04:36:45;;;;;;;5.67;3.30;;;16.10;91.50;;;;;;5032031;28;20421;-66
2023/08/18 04:39:11;;;;;;;6.83;3.90;;;16.10;91.40;;;;;;5020162;28;20331;-65
2023/08/18 04:41:37;;;;;;;6.10;3.17;;;16.10;91.50;;;;;;5031552;28;20044;-65
2023/08/18 04:44:04;;;;;;;6.80;4.07;;;16.10;91.50;;;;;;5017105;28;20055;-66
2023/08/18 04:46:30;;;;;;;6.30;3.70;;;16.10;91.60;;;;;;5044609;28;20037;-65
2023/08/18 04:48:57;;;;;;;4.73;3.50;;;16.10;91.50;;;;;;5028311;28;20275;-65
2023/08/18 04:51:23;;;;;;;4.47;3.57;;;16.10;91.50;;;;;;5028873;28;20677;-65
2023/08/18 04:53:49;;;;;;;5.47;3.87;;;16.20;91.60;;;;;;5028314;28;20381;-65
2023/08/18 04:56:15;;;;;;;6.30;3.80;;;16.20;91.60;;;;;;5028011;28;20813;-65
2023/08/18 04:58:41;;;;;;;5.53;3.37;;;16.20;91.70;;;;;;5031905;28;20325;-65
2023/08/18 05:01:07;;;;;;;5.27;3.90;;;16.20;91.60;;;;;;5026591;28;20049;-65
2023/08/18 05:03:36;;;;;;;5.17;3.97;;;16.20;91.60;;;;;;5027179;28;20300;-65
2023/08/18 05:06:10;;;;;;;4.77;3.60;;;16.20;91.70;;;;;;5026262;28;20661;-65
2023/08/18 05:08:37;;;;;;;4.70;3.83;;;16.20;91.70;;;;;;5028738;28;20374;-66
2023/08/18 05:11:05;;;;;;;5.10;3.43;;;16.20;91.70;;;;;;5023456;28;20294;-65
2023/08/18 05:13:31;;;;;;;7.93;4.57;;;16.20;91.90;;;;;;5028716;28;20295;-65
2023/08/18 05:15:59;;;;;;;12.73;4.73;;;16.30;92.00;;;;;;5029668;28;20333;-66
2023/08/18 05:18:25;;;;;;;6.07;3.87;;;16.30;91.90;;;;;;5027277;28;20299;-65
2023/08/18 05:20:50;;;;;;;8.23;4.40;;;16.30;92.00;;;;;;5023556;28;20326;-65
2023/08/18 05:23:17;;;;;;;7.83;5.03;;;16.30;92.00;;;;;;5009501;28;20124;-65
2023/08/18 05:25:48;;;;;;;6.33;4.30;;;16.30;91.80;;;;;;5005144;28;20099;-65
2023/08/18 05:28:14;;;;;;;7.20;5.20;;;16.30;92.00;;;;;;5014862;28;20284;-65
2023/08/18 05:30:47;;;;;;;5.90;4.27;;;16.30;92.00;;;;;;5006027;28;20293;-65
2023/08/18 05:33:13;;;;;;;7.10;4.03;;;16.30;92.10;;;;;;5014715;28;20291;-65
2023/08/18 05:35:40;;;;;;;7.17;4.60;;;16.30;92.30;;;;;;5006276;28;20614;-65
2023/08/18 05:38:11;;;;;;;7.90;4.97;;;16.30;92.20;;;;;;5004258;28;20302;-65
2023/08/18 05:40:42;;;;;;;8.10;5.00;;;16.30;92.30;;;;;;4995375;28;20279;-65
2023/08/18 05:43:13;;;;;;;8.67;5.20;;;16.30;92.20;;;;;;4999107;28;20409;-66
2023/08/18 05:45:40;;;;;;;8.73;5.07;;;16.30;92.30;;;;;;5008686;28;20779;-66
2023/08/18 05:48:06;;;;;;;6.67;4.97;;;16.30;92.50;;;;;;5011219;28;20299;-65
2023/08/18 05:50:33;;;;;;;6.23;5.00;;;16.30;92.70;;;;;;5013575;28;20284;-65
2023/08/18 05:53:02;;;;;;;8.00;4.80;;;16.30;92.50;;;;;;5007851;28;20713;-65
2023/08/18 05:55:28;;;;;;;8.27;5.33;;;16.40;92.50;;;;;;5010518;28;20296;-66
2023/08/18 05:57:58;;;;;;;9.33;5.40;;;16.40;92.60;;;;;;5009968;28;20337;-66
2023/08/18 06:00:24;;;;;;;6.67;5.13;;;16.50;92.90;;;;;;5011769;28;20287;-65
2023/08/18 06:02:50;;;;;;;6.07;4.70;;;16.50;92.70;;;;;;5007904;28;20307;-66
2023/08/18 06:05:15;;;;;;;8.33;5.47;;;16.60;92.60;;;;;;5011675;28;20441;-66
2023/08/18 06:07:41;;;;;;;8.97;5.20;;;16.60;92.60;;;;;;5006163;28;20048;-66
2023/08/18 06:10:09;;;;;;;6.80;5.03;;;16.70;92.40;;;;;;5011062;28;20129;-66
2023/08/18 06:12:35;;;;;;;7.27;5.03;;;16.70;92.40;;;;;;5011184;28;20081;-66
2023/08/18 06:15:01;;;;;;;11.40;5.37;;;16.70;92.60;;;;;;5016255;28;20342;-66
2023/08/18 06:17:26;;;;;;;10.23;4.90;;;16.80;92.30;;;;;;5006098;28;20335;-66
2023/08/18 06:19:52;;;;;;;7.67;5.17;;;16.80;92.40;;;;;;5017260;28;20045;-65
2023/08/18 06:22:18;;;;;;;7.87;4.70;;;16.80;92.30;;;;;;5007162;28;20056;-65
2023/08/18 06:24:44;;;;;;;6.97;5.00;;;16.80;92.20;;;;;;5008107;28;20481;-66
2023/08/18 06:27:10;;;;;;;7.93;4.90;;;16.90;92.30;;;;;;5010839;28;20048;-66
2023/08/18 06:29:37;;;;;;;7.23;5.20;;;16.90;92.30;;;;;;5003975;28;20124;-65
2023/08/18 06:32:03;;;;;;;8.97;5.63;;;16.90;92.50;;;;;;5010230;28;20048;-65
2023/08/18 06:34:28;;;;;;;9.70;5.47;;;16.90;92.60;;;;;;5010748;28;20791;-65
2023/08/18 06:36:54;;;;;;;9.23;4.77;;;17.00;92.30;;;;;;5008361;28;20575;-65
2023/08/18 06:39:20;;;;;;;7.87;5.27;;;17.00;92.30;;;;;;5006789;28;20046;-65
2023/08/18 06:41:45;;;;;;;9.90;5.63;;;17.10;92.30;;;;;;5006450;28;20083;-65
2023/08/18 06:44:12;;;;;;;5.97;4.50;;;17.10;92.30;;;;;;5009764;28;20564;-65
2023/08/18 06:46:37;;;;;;;8.10;4.80;;;17.10;92.10;;;;;;5009666;28;20033;-65
2023/08/18 06:49:03;;;;;;;6.60;4.93;;;17.20;92.20;;;;;;5008812;28;20357;-65
2023/08/18 06:51:29;;;;;;;9.17;5.27;;;17.30;92.10;;;;;;5012241;28;20652;-65
2023/08/18 06:53:54;;;;;;;7.47;4.83;;;17.30;92.10;;;;;;4992114;28;20114;-65
2023/08/18 06:56:20;;;;;;;7.33;4.83;;;17.30;92.00;;;;;;5009221;28;20045;-65
2023/08/18 06:58:46;;;;;;;8.63;5.10;;;17.40;92.00;;;;;;5041809;28;20618;-65
2023/08/18 07:01:12;;;;;;;9.00;5.00;;;17.50;91.90;;;;;;5016010;28;20056;-65
2023/08/18 07:03:37;;;;;;;8.23;5.37;;;17.60;91.80;;;;;;4998778;28;20487;-66
2023/08/18 07:06:03;;;;;;;10.30;4.90;;;17.60;91.00;;;;;;5004249;28;20122;-66
2023/08/18 07:08:29;;;;;;;7.00;4.73;;;17.60;91.10;;;;;;5005846;28;20056;-66
2023/08/18 07:10:55;;;;;;;10.20;5.10;;;17.60;90.90;;;;;;5002455;28;20038;-66
2023/08/18 07:13:21;;;;;;;7.90;4.53;;;17.60;90.90;;;;;;5008914;28;20061;-66
2023/08/18 07:15:50;;;;;;;10.20;4.77;;;17.70;90.90;;;;;;5008829;28;20046;-66
2023/08/18 07:18:19;;;;;;;9.60;5.00;;;17.70;90.80;;;;;;5008171;28;20041;-66
2023/08/18 07:20:46;;;;;;;8.77;5.07;;;17.70;90.80;;;;;;5012845;28;20140;-66
2023/08/18 07:23:12;;;;;;;7.53;5.13;;;17.80;90.80;;;;;;5028185;28;20545;-66
2023/08/18 07:25:42;;;;;;;7.37;4.77;;;17.80;90.50;;;;;;5033584;28;20103;-66
2023/08/18 07:28:07;;;;;;;8.83;4.70;;;17.80;90.40;;;;;;5027251;28;20033;-66
2023/08/18 07:30:33;;;;;;;9.13;5.07;;;17.90;90.50;;;;;;5025772;28;20037;-66
2023/08/18 07:32:59;;;;;;;9.30;5.47;;;17.90;90.60;;;;;;5023508;28;20528;-66
2023/08/18 07:35:25;;;;;;;7.27;4.97;;;17.90;90.60;;;;;;5024229;28;20091;-66
2023/08/18 07:37:51;;;;;;;8.60;5.03;;;18.00;90.40;;;;;;5030762;28;20037;-66
2023/08/18 07:40:17;;;;;;;7.03;4.27;;;18.10;90.30;;;;;;5017239;28;20059;-66
2023/08/18 07:42:46;;;;;;;9.57;4.93;;;18.20;90.00;;;;;;5024584;28;20038;-66
2023/08/18 07:45:12;;;;;;;8.03;5.10;;;18.20;89.50;;;;;;5030059;28;20040;-66
2023/08/18 07:47:38;;;;;;;7.17;4.20;;;18.30;89.40;;;;;;5029211;28;20490;-66
2023/08/18 07:50:10;;;;;;;7.90;4.20;;;18.30;89.20;;;;;;5035794;28;20083;-66
2023/08/18 07:52:36;;;;;;;6.77;4.67;;;18.40;89.10;;;;;;5028939;28;20163;-66
2023/08/18 07:55:07;;;;;;;7.93;4.53;;;18.40;89.00;;;;;;5023646;28;20037;-66
2023/08/18 07:57:34;;;;;;;8.17;4.60;;;18.40;89.00;;;;;;5016928;28;20127;-66
2023/08/18 08:00:09;;;;;;;7.13;4.07;;;18.40;88.90;;;;;;5033394;28;20032;-66
2023/08/18 08:02:35;;;;;;;7.43;4.43;;;18.40;88.90;;;;;;5031096;28;20064;-66
2023/08/18 08:05:05;;;;;;;6.43;3.70;;;18.40;89.10;;;;;;5030918;28;20366;-66
2023/08/18 08:07:33;;;;;;;8.07;3.97;;;18.40;89.50;;;;;;5015007;28;20041;-66
2023/08/18 08:10:03;;;;;;;9.23;4.30;;;18.50;89.50;;;;;;5012738;28;20120;-66
2023/08/18 08:12:29;;;;;;;9.27;4.50;;;18.50;89.60;;;;;;5030248;28;20048;-66
2023/08/18 08:14:55;;;;;;;6.73;4.20;;;18.50;89.40;;;;;;5036075;28;20049;-66
2023/08/18 08:17:21;;;;;;;7.00;3.53;;;18.50;89.60;;;;;;5032448;28;20043;-65
2023/08/18 08:19:47;;;;;;;7.07;3.80;;;18.50;89.90;;;;;;5031777;28;20454;-66
2023/08/18 08:22:13;;;;;;;6.83;4.10;;;18.60;90.00;;;;;;5030093;28;20110;-66
2023/08/18 08:24:38;;;;;;;7.37;3.93;;;18.70;89.90;;;;;;5029220;28;20045;-66
2023/08/18 08:27:04;;;;;;;7.03;4.07;;;18.80;89.70;;;;;;5031423;28;20036;-66
2023/08/18 08:29:30;;;;;;;6.60;4.10;;;18.90;89.50;;;;;;5030333;28;21095;-66
2023/08/18 08:31:55;;;;;;;5.97;3.80;;;19.10;89.30;;;;;;5029679;28;20086;-66
2023/08/18 08:34:21;;;;;;;5.20;3.90;;;19.20;87.90;;;;;;5014704;28;20381;-65
2023/08/18 08:36:47;;;;;;;5.87;3.93;;;19.20;87.80;;;;;;5033833;28;20037;-66
2023/08/18 08:39:13;;;;;;;6.87;4.30;;;19.30;88.00;;;;;;5027193;28;20040;-66
2023/08/18 08:41:38;;;;;;;6.13;4.07;;;19.40;88.00;;;;;;5015863;28;20041;-66
2023/08/18 08:44:04;;;;;;;6.10;3.73;;;19.40;87.40;;;;;;5028755;28;20672;-66
2023/08/18 08:46:31;;;;;;;5.83;3.33;;;19.30;87.20;;;;;;5027977;28;20052;-66
2023/08/18 08:49:01;;;;;;;5.57;3.77;;;19.30;87.40;;;;;;5023040;28;20037;-66
2023/08/18 08:51:29;;;;;;;6.80;4.23;;;19.30;87.70;;;;;;5034119;28;20040;-66
2023/08/18 08:53:59;;;;;;;6.37;4.00;;;19.40;87.70;;;;;;5029144;28;20048;-66
2023/08/18 08:56:30;;;;;;;6.70;3.77;;;19.40;87.40;;;;;;5029569;28;20045;-66
2023/08/18 08:58:56;;;;;;;5.93;3.63;;;19.50;87.30;;;;;;5028146;28;20128;-66
2023/08/18 09:01:22;;;;;;;6.67;3.30;;;19.80;87.40;;;;;;5036360;28;20128;-66
2023/08/18 09:03:50;;;;;;;5.87;3.50;;;19.90;85.20;;;;;;5029763;28;20616;-66
2023/08/18 09:06:16;;;;;;;4.43;3.33;;;19.90;85.10;;;;;;5028042;28;20041;-66
2023/08/18 09:08:41;;;;;;;5.67;3.50;;;19.90;84.70;;;;;;5017248;28;20033;-66
2023/08/18 09:11:08;;;;;;;4.70;3.10;;;19.90;84.70;;;;;;5029679;28;20036;-66
2023/08/18 09:13:35;;;;;;;6.37;3.40;;;19.90;84.30;;;;;;5026722;28;20183;-66
2023/08/18 09:16:07;;;;;;;4.50;3.27;;;19.90;84.80;;;;;;5026938;28;20044;-66
2023/08/18 09:18:34;;;;;;;4.37;3.17;;;20.00;84.40;;;;;;5023849;28;20033;-66
2023/08/18 09:21:01;;;;;;;5.97;2.63;;;20.00;84.40;;;;;;5022642;28;20064;-66
2023/08/18 09:23:28;;;;;;;8.23;3.67;;;20.10;84.70;;;;;;5008834;28;20057;-66
2023/08/18 09:25:57;;;;;;;8.17;3.23;;;20.30;84.40;;;;;;5011430;28;20103;-66
2023/08/18 09:28:24;;;;;;;7.50;3.37;;;20.30;83.80;;;;;;5011606;28;20046;-66
2023/08/18 09:30:50;;;;;;;7.43;3.87;;;20.30;83.70;;;;;;4994673;28;20041;-66
2023/08/18 09:33:16;;;;;;;5.53;3.77;;;20.30;83.30;;;;;;5028127;28;20037;-66
2023/08/18 09:35:42;;;;;;;5.97;3.17;;;20.30;82.90;;;;;;5004928;28;20329;-66
2023/08/18 09:38:13;;;;;;;6.03;3.73;;;20.50;83.80;;;;;;5008130;28;20042;-66
2023/08/18 09:40:39;;;;;;;7.93;2.90;;;20.70;83.90;;;;;;5004956;28;20524;-66
2023/08/18 09:43:05;;;;;;;6.70;3.70;;;20.90;82.80;;;;;;5010394;28;20033;-66
2023/08/18 09:45:32;;;;;;;4.60;2.50;;;21.10;82.10;;;;;;5006894;28;20091;-66
2023/08/18 09:48:01;;;;;;;5.80;3.03;;;21.20;81.70;;;;;;4990901;28;20095;-66
2023/08/18 09:50:30;;;;;;;7.80;3.47;;;21.30;81.60;;;;;;5011024;28;20041;-66
2023/08/18 09:52:58;;;;;;;5.00;2.80;;;21.50;81.30;;;;;;5003038;28;20400;-66
2023/08/18 09:55:32;;;;;;;3.33;2.33;;;21.50;79.60;;;;;;5007755;28;20433;-66
2023/08/18 09:58:11;;;;;;;6.45;2.92;;;21.50;80.40;;;;;;5005107;28;20055;-66
2023/08/18 10:00:42;;;;;;;4.10;2.27;;;21.50;80.00;;;;;;5006498;28;20064;-66
2023/08/18 10:03:13;;;;;;;4.97;2.63;;;21.50;80.00;;;;;;5004849;28;20045;-66
2023/08/18 10:05:40;;;;;;;4.73;2.60;;;21.50;80.50;;;;;;5009274;28;20045;-66
2023/08/18 10:08:06;;;;;;;6.03;2.77;;;21.60;80.30;;;;;;5010686;28;20403;-66
2023/08/18 10:10:32;;;;;;;4.63;2.70;;;21.70;80.50;;;;;;5005122;28;20067;-66
2023/08/18 10:12:58;;;;;;;3.83;2.77;;;21.80;80.20;;;;;;5005086;28;20041;-66
2023/08/18 10:15:26;;;;;;;5.17;3.00;;;21.90;79.20;;;;;;5010763;28;20072;-66
2023/08/18 10:17:51;;;;;;;4.83;2.83;;;22.00;79.40;;;;;;5010644;28;20120;-66
2023/08/18 10:20:17;;;;;;;6.20;3.53;;;22.10;79.10;;;;;;5007668;28;20462;-66
2023/08/18 10:22:43;;;;;;;6.50;3.07;;;22.20;78.60;;;;;;5026764;28;20055;-66
2023/08/18 10:25:09;;;;;;;6.73;3.20;;;22.20;78.30;;;;;;5026413;28;20098;-66
2023/08/18 10:27:37;;;;;;;6.83;3.63;;;22.30;78.60;;;;;;5023955;28;20036;-66
2023/08/18 10:30:10;;;;;;;9.40;3.83;;;22.20;78.10;;;;;;5024646;28;20060;-66
2023/08/18 10:32:36;;;;;;;6.03;3.83;;;22.30;78.40;;;;;;5011074;28;20521;-66
2023/08/18 10:35:28;;;;;;;9.27;4.50;;;22.30;78.40;;;;;;5023424;28;21615;-66
2023/08/18 10:37:55;;;;;;;9.00;4.07;;;22.30;78.60;;;;;;5027842;28;20536;-66
2023/08/18 10:40:35;;;;;;;6.17;4.23;;;22.40;78.90;;;;;;5030206;28;20057;-66
2023/08/18 10:43:08;;;;;;;6.60;4.43;;;22.40;78.10;;;;;;5029423;28;20489;-67
2023/08/18 10:45:34;;;;;;;7.73;4.77;;;22.40;78.00;;;;;;5027529;28;20040;-67
2023/08/18 10:48:03;;;;;;;8.17;4.90;;;22.50;78.30;;;;;;5022976;28;20428;-67
2023/08/18 10:50:34;;;;;;;8.57;4.00;;;22.60;77.90;;;;;;5029863;28;20132;-67
2023/08/18 10:53:01;;;;;;;7.73;4.77;;;22.90;77.80;;;;;;5022769;28;20052;-67
2023/08/18 10:55:28;;;;;;;8.53;4.37;;;23.10;77.30;;;;;;5024220;28;20051;-67
2023/08/18 10:57:53;;;;;;;7.93;4.27;;;23.20;76.50;;;;;;5035151;28;20038;-67
2023/08/18 11:00:19;;;;;;;11.77;5.57;;;23.20;76.10;;;;;;5029360;28;20094;-67
2023/08/18 11:02:50;;;;;;;9.80;5.07;;;23.10;76.10;;;;;;5024642;28;20108;-67
2023/08/18 11:05:21;;;;;;;10.53;5.47;;;23.00;75.50;;;;;;5025805;28;20037;-67
2023/08/18 11:07:49;;;;;;;8.63;5.10;;;22.80;76.10;;;;;;5024865;28;20033;-67
2023/08/18 11:10:18;;;;;;;9.37;5.13;;;22.70;76.40;;;;;;5019502;28;20111;-67
2023/08/18 11:12:44;;;;;;;8.50;5.17;;;22.70;77.20;;;;;;5032274;28;20122;-67
2023/08/18 11:15:12;;;;;;;10.10;5.70;;;22.70;76.60;;;;;;5023047;28;20398;-67
2023/08/18 11:17:38;;;;;;;12.43;6.07;;;22.80;77.20;;;;;;5029416;28;20560;-66
2023/08/18 11:20:13;;;;;;;11.33;5.70;;;22.90;76.40;;;;;;5029856;28;20049;-66
2023/08/18 11:22:40;;;;;;;10.93;6.07;;;22.90;76.30;;;;;;5023104;28;20057;-66
2023/08/18 11:25:07;;;;;;;10.17;6.20;;;22.90;75.80;;;;;;5026543;28;20617;-66
2023/08/18 11:27:34;;;;;;;10.40;5.87;;;22.80;75.90;;;;;;5021604;28;20087;-66
2023/08/18 11:30:00;;;;;;;10.17;6.53;;;22.80;76.60;;;;;;5025651;28;20044;-66
2023/08/18 11:32:27;;;;;;;11.03;6.13;;;22.90;76.70;;;;;;5024296;28;20036;-66
2023/08/18 11:34:53;;;;;;;12.83;5.73;;;22.90;76.30;;;;;;5026140;28;20048;-66
2023/08/18 11:37:23;;;;;;;9.97;5.90;;;23.00;76.20;;;;;;5027541;28;20056;-66
2023/08/18 11:39:49;;;;;;;9.97;6.03;;;23.10;76.40;;;;;;5006279;28;20045;-66
2023/08/18 11:42:17;;;;;;;10.97;6.50;;;23.20;76.30;;;;;;5020739;28;20041;-66
2023/08/18 11:44:44;;;;;;;9.10;5.60;;;23.30;76.00;;;;;;5029491;28;20033;-66
2023/08/18 11:47:11;;;;;;;10.20;6.07;;;23.40;76.00;;;;;;5028678;28;20091;-66
2023/08/18 11:49:37;;;;;;;9.10;6.10;;;23.50;75.80;;;;;;5029777;28;20071;-67
2023/08/18 11:52:04;;;;;;;8.40;5.63;;;23.60;74.60;;;;;;5026727;28;20041;-67
2023/08/18 11:54:35;;;;;;;11.27;6.40;;;23.60;74.00;;;;;;5028663;28;20107;-67
2023/08/18 11:57:02;;;;;;;8.50;5.77;;;23.80;74.60;;;;;;5028513;28;20544;-67
2023/08/18 11:59:28;;;;;;;8.67;6.17;;;24.00;73.70;;;;;;5028560;28;20208;-67
2023/08/18 12:01:56;;;;;;;8.83;6.07;;;24.00;73.10;;;;;;5025404;28;20605;-67
2023/08/18 12:04:30;;;;;;;7.80;6.00;;;24.00;73.20;;;;;;5029197;28;20051;-66
2023/08/18 12:06:57;;;;;;;8.50;6.07;;;24.10;73.30;;;;;;5025728;28;20457;-67
2023/08/18 12:09:23;;;;;;;9.97;6.60;;;24.20;72.50;;;;;;5029701;28;20044;-67
2023/08/18 12:11:50;;;;;;;9.60;6.93;;;24.30;72.20;;;;;;5026358;28;20045;-67
2023/08/18 12:14:17;;;;;;;9.93;6.73;;;24.40;72.10;;;;;;5027341;28;20053;-67
2023/08/18 12:16:43;;;;;;;10.37;6.17;;;24.50;71.40;;;;;;5027069;28;20068;-67
2023/08/18 12:19:10;;;;;;;9.33;6.97;;;24.60;71.20;;;;;;5029622;28;20773;-67
2023/08/18 12:21:36;;;;;;;8.63;6.13;;;24.70;71.70;;;;;;5027261;28;20084;-67
2023/08/18 12:24:03;;;;;;;9.77;6.60;;;24.80;70.80;;;;;;5031688;28;20524;-67
2023/08/18 12:26:30;;;;;;;11.27;7.30;;;24.90;71.10;;;;;;5031187;28;20045;-67
2023/08/18 12:28:55;;;;;;;10.80;6.80;;;25.00;70.50;;;;;;5034431;28;20742;-67
2023/08/18 12:31:24;;;;;;;9.37;6.67;;;25.10;70.50;;;;;;5032416;28;20048;-67
2023/08/18 12:33:50;;;;;;;14.70;7.47;;;25.20;69.90;;;;;;5030799;28;20097;-67
2023/08/18 12:36:16;;;;;;;8.13;6.50;;;25.30;68.80;;;;;;5027419;28;20052;-67
2023/08/18 12:38:42;;;;;;;9.27;6.90;;;25.40;68.70;;;;;;5031224;28;20044;-67
2023/08/18 12:41:08;;;;;;;12.87;7.10;;;25.40;69.40;;;;;;5028011;28;20040;-67
2023/08/18 12:43:36;;;;;;;8.13;5.83;;;25.50;69.20;;;;;;5028016;28;20076;-67